createdAt,value
2019-05-19T00:00:26.624Z,5.33
2019-05-19T00:05:27.718Z,6.07
2019-05-19T00:10:28.839Z,5.87
2019-05-19T00:15:29.966Z,6.20
2019-05-19T00:20:31.058Z,6.50
2019-05-19T00:25:32.873Z,5.77
2019-05-19T00:30:33.990Z,6.50
2019-05-19T00:35:35.093Z,5.90
2019-05-19T00:40:36.280Z,6.10
2019-05-19T00:45:37.394Z,5.97
2019-05-19T00:50:38.697Z,5.70
2019-05-19T00:55:40.197Z,5.57
2019-05-19T01:00:41.398Z,5.83
2019-05-19T01:05:42.504Z,6.10
2019-05-19T01:10:43.723Z,5.40
2019-05-19T01:15:44.836Z,5.00
2019-05-19T01:20:46.148Z,5.60
2019-05-19T01:25:47.224Z,5.00
2019-05-19T01:30:48.381Z,6.00
2019-05-19T01:35:49.527Z,5.97
2019-05-19T01:40:50.627Z,6.53
2019-05-19T01:45:51.813Z,7.83
2019-05-19T01:50:52.914Z,7.60
2019-05-19T01:55:54.023Z,6.23
2019-05-19T02:00:55.211Z,6.20
2019-05-19T02:05:56.426Z,7.80
2019-05-19T02:10:57.540Z,8.00
2019-05-19T02:15:58.636Z,8.10
2019-05-19T02:20:59.719Z,8.13
2019-05-19T02:26:00.842Z,8.33
2019-05-19T02:31:02.029Z,8.97
2019-05-19T02:36:03.150Z,9.50
2019-05-19T02:41:06.053Z,9.17
2019-05-19T02:46:08.349Z,10.77
2019-05-19T02:51:10.536Z,10.53
2019-05-19T02:56:11.846Z,10.00
2019-05-19T03:01:12.979Z,10.03
2019-05-19T03:06:14.090Z,10.30
2019-05-19T03:11:15.228Z,10.23
2019-05-19T03:16:16.319Z,11.73
2019-05-19T03:21:17.407Z,10.63
2019-05-19T03:26:18.505Z,11.57
2019-05-19T03:31:21.496Z,12.17
2019-05-19T03:36:22.587Z,11.13
2019-05-19T03:41:23.683Z,11.40
2019-05-19T03:46:24.785Z,11.57
2019-05-19T03:51:31.010Z,11.03
2019-05-19T03:56:28.873Z,11.03
2019-05-19T04:01:29.968Z,10.50
2019-05-19T04:06:31.060Z,9.07
2019-05-19T04:11:32.179Z,8.90
2019-05-19T04:16:33.294Z,9.60
2019-05-19T04:21:48.029Z,9.07
2019-05-19T04:26:37.360Z,10.10
2019-05-19T04:31:38.452Z,9.00
2019-05-19T04:36:39.535Z,9.83
2019-05-19T04:41:40.662Z,10.20
2019-05-19T04:46:41.826Z,9.37
2019-05-19T04:51:42.933Z,8.67
2019-05-19T04:56:44.007Z,8.53
2019-05-19T05:01:45.100Z,8.23
2019-05-19T05:06:46.196Z,8.47
2019-05-19T05:11:47.530Z,7.97
2019-05-19T05:16:48.627Z,7.23
2019-05-19T05:21:49.727Z,6.97
2019-05-19T05:26:50.917Z,7.57
2019-05-19T05:31:52.004Z,7.70
2019-05-19T05:36:53.106Z,7.73
2019-05-19T05:41:54.226Z,6.40
2019-05-19T05:46:55.325Z,7.07
2019-05-19T05:51:56.427Z,6.70
2019-05-19T05:56:57.524Z,8.70
2019-05-19T06:01:58.603Z,8.60
2019-05-19T06:06:59.702Z,8.07
2019-05-19T06:12:00.834Z,7.43
2019-05-19T06:17:01.922Z,7.73
2019-05-19T06:22:03.218Z,8.17
2019-05-19T06:27:04.311Z,8.23
2019-05-19T06:32:07.371Z,7.47
2019-05-19T06:37:08.485Z,7.17
2019-05-19T06:42:09.575Z,7.50
2019-05-19T06:47:10.689Z,8.98
2019-05-19T06:52:11.908Z,7.40
2019-05-19T06:57:13.016Z,7.60
2019-05-19T07:02:14.212Z,7.37
2019-05-19T07:07:15.331Z,6.57
2019-05-19T07:12:16.446Z,6.60
2019-05-19T07:17:17.544Z,6.93
2019-05-19T07:22:18.631Z,7.23
2019-05-19T07:27:19.738Z,7.67
2019-05-19T07:32:20.827Z,6.70
2019-05-19T07:37:21.974Z,7.23
2019-05-19T07:42:23.078Z,7.27
2019-05-19T07:47:24.172Z,7.13
2019-05-19T07:52:25.324Z,7.33
2019-05-19T07:57:26.433Z,7.17
2019-05-19T08:02:27.561Z,6.97
2019-05-19T08:07:28.673Z,7.50
2019-05-19T08:12:29.805Z,7.23
2019-05-19T08:17:30.941Z,7.23
2019-05-19T08:22:32.035Z,7.33
2019-05-19T08:27:33.169Z,6.43
2019-05-19T08:32:34.450Z,7.00
2019-05-19T08:37:35.556Z,6.30
2019-05-19T08:42:36.669Z,6.67
2019-05-19T08:47:37.782Z,6.67
2019-05-19T08:52:39.016Z,7.17
2019-05-19T08:57:40.131Z,7.43
2019-05-19T09:02:41.222Z,7.43
2019-05-19T09:07:42.340Z,6.50
2019-05-19T09:12:43.465Z,7.40
2019-05-19T09:17:44.566Z,6.90
2019-05-19T09:22:45.672Z,6.43
2019-05-19T09:27:46.875Z,6.40
2019-05-19T09:32:47.997Z,6.00
2019-05-19T09:37:49.209Z,6.73
2019-05-19T09:42:50.424Z,7.77
2019-05-19T09:47:51.547Z,7.00
2019-05-19T09:52:52.778Z,7.57
2019-05-19T09:57:53.872Z,6.23
2019-05-19T10:02:55.371Z,6.53
2019-05-19T10:07:56.536Z,5.80
2019-05-19T10:12:58.039Z,6.20
2019-05-19T10:17:59.190Z,5.27
2019-05-19T10:23:00.326Z,6.40
2019-05-19T10:28:01.490Z,5.93
2019-05-19T10:33:02.749Z,6.20
2019-05-19T10:38:04.056Z,6.13
2019-05-19T10:43:05.154Z,6.63
2019-05-19T10:48:06.302Z,6.10
2019-05-19T10:53:07.411Z,6.00
2019-05-19T10:58:08.531Z,5.97
2019-05-19T11:03:09.635Z,6.20
2019-05-19T11:08:10.765Z,5.73
2019-05-19T11:13:11.896Z,6.20
2019-05-19T11:18:12.993Z,5.60
2019-05-19T11:23:14.110Z,5.00
2019-05-19T11:28:15.199Z,4.73
2019-05-19T11:33:16.326Z,6.90
2019-05-19T11:38:17.527Z,5.43
2019-05-19T11:43:18.627Z,4.73
2019-05-19T11:48:19.758Z,4.73
2019-05-19T11:53:20.885Z,4.57
2019-05-19T11:58:22.092Z,4.93
2019-05-19T12:03:23.223Z,4.93
2019-05-19T12:08:24.329Z,3.90
2019-05-19T12:13:25.456Z,3.20
2019-05-19T12:18:26.578Z,3.57
2019-05-19T12:23:27.677Z,4.03
2019-05-19T12:28:28.804Z,4.00
2019-05-19T12:33:30.016Z,5.20
2019-05-19T12:38:31.122Z,4.63
2019-05-19T12:43:32.324Z,3.10
2019-05-19T12:48:33.562Z,3.07
2019-05-19T12:53:34.829Z,3.17
2019-05-19T12:58:36.036Z,3.60
2019-05-19T13:03:37.104Z,3.40
2019-05-19T13:08:38.221Z,3.80
2019-05-19T13:13:39.409Z,3.23
2019-05-19T13:18:40.508Z,2.75
2019-05-19T13:23:41.614Z,3.20
2019-05-19T13:28:42.732Z,2.67
2019-05-19T13:33:43.949Z,2.80
2019-05-19T13:38:45.166Z,3.35
2019-05-19T13:43:46.296Z,3.10
2019-05-19T13:48:47.386Z,3.57
2019-05-19T13:53:48.509Z,3.30
2019-05-19T13:58:49.637Z,3.20
2019-05-19T14:03:52.228Z,3.57
2019-05-19T14:08:53.677Z,3.00
2019-05-19T14:13:54.769Z,3.30
2019-05-19T14:18:55.868Z,3.40
2019-05-19T14:23:57.010Z,3.33
2019-05-19T14:28:58.136Z,4.20
2019-05-19T14:33:59.319Z,3.20
2019-05-19T14:39:05.144Z,3.87
2019-05-19T14:44:03.937Z,3.50
2019-05-19T14:49:05.053Z,3.77
2019-05-19T14:54:06.177Z,3.13
2019-05-19T14:59:07.300Z,3.00
2019-05-19T15:04:08.388Z,3.33
2019-05-19T15:09:09.768Z,3.30
2019-05-19T15:14:11.111Z,3.83
2019-05-19T15:19:12.244Z,3.60
2019-05-19T15:24:13.329Z,5.37
2019-05-19T15:29:14.431Z,6.10
2019-05-19T15:34:15.548Z,5.90
2019-05-19T15:39:16.754Z,4.10
2019-05-19T15:44:17.902Z,3.57
2019-05-19T15:49:18.992Z,3.20
2019-05-19T15:54:20.095Z,2.63
2019-05-19T15:59:21.201Z,2.47
2019-05-19T16:04:22.722Z,2.43
2019-05-19T16:09:23.870Z,2.53
2019-05-19T16:14:25.221Z,2.93
2019-05-19T16:19:26.397Z,2.70
2019-05-19T16:24:27.680Z,2.87
2019-05-19T16:29:28.879Z,2.83
2019-05-19T16:34:30.000Z,3.40
2019-05-19T16:39:31.100Z,2.90
2019-05-19T16:44:32.225Z,2.50
2019-05-19T16:49:33.448Z,2.80
2019-05-19T16:54:36.766Z,4.20
2019-05-19T16:59:37.869Z,4.10
2019-05-19T17:04:39.011Z,2.83
2019-05-19T17:09:40.120Z,4.27
2019-05-19T17:14:41.254Z,4.10
2019-05-19T17:19:42.463Z,3.30
2019-05-19T17:24:43.578Z,6.13
2019-05-19T17:29:44.695Z,26.00
2019-05-19T17:34:45.809Z,4.40
2019-05-19T17:39:47.029Z,3.60
2019-05-19T17:44:48.752Z,3.47
2019-05-19T17:49:51.264Z,2.97
2019-05-19T17:54:53.148Z,3.47
2019-05-19T17:59:54.716Z,3.20
2019-05-19T18:04:55.841Z,3.63
2019-05-19T18:09:57.074Z,3.87
2019-05-19T18:14:58.537Z,3.80
2019-05-19T18:20:00.029Z,3.90
2019-05-19T18:25:01.813Z,3.47
2019-05-19T18:30:04.264Z,3.10
2019-05-19T18:35:05.830Z,3.33
2019-05-19T18:40:07.809Z,3.17
2019-05-19T18:45:09.484Z,4.00
2019-05-19T18:50:11.109Z,4.13
2019-05-19T18:55:12.637Z,4.33
2019-05-19T19:00:17.583Z,4.20
2019-05-19T19:05:18.838Z,3.80
2019-05-19T19:10:20.261Z,4.47
2019-05-19T19:15:21.500Z,9.33
2019-05-19T19:20:22.702Z,4.70
2019-05-19T19:25:24.039Z,4.20
2019-05-19T19:30:26.617Z,5.30
2019-05-19T19:35:38.304Z,2.80
2019-05-19T19:40:32.385Z,4.93
2019-05-19T19:45:33.481Z,4.43
2019-05-19T19:50:34.665Z,3.00
2019-05-19T19:55:35.938Z,5.13
2019-05-19T20:00:40.046Z,4.20
2019-05-19T20:05:41.473Z,7.17
2019-05-19T20:10:42.715Z,6.10
2019-05-19T20:15:43.842Z,5.33
2019-05-19T20:20:44.943Z,4.60
2019-05-19T20:25:46.161Z,4.27
2019-05-19T20:30:47.277Z,4.30
2019-05-19T20:35:48.494Z,4.60
2019-05-19T20:40:49.699Z,4.20
2019-05-19T20:45:50.812Z,4.97
2019-05-19T20:50:51.916Z,4.80
2019-05-19T20:55:53.044Z,5.93
2019-05-19T21:00:54.153Z,5.63
2019-05-19T21:05:55.252Z,5.73
2019-05-19T21:10:56.336Z,6.60
2019-05-19T21:15:57.473Z,5.70
2019-05-19T21:20:58.559Z,4.70
2019-05-19T21:25:59.751Z,6.40
2019-05-19T21:31:05.782Z,5.77
2019-05-19T21:36:03.881Z,5.27
2019-05-19T21:41:05.003Z,7.03
2019-05-19T21:46:06.683Z,6.37
2019-05-19T21:51:07.909Z,7.13
2019-05-19T21:56:09.186Z,6.97
2019-05-19T22:01:22.722Z,6.93
2019-05-19T22:06:14.144Z,7.00
2019-05-19T22:11:15.222Z,8.07
2019-05-19T22:16:16.322Z,8.83
2019-05-19T22:21:17.402Z,8.23
2019-05-19T22:26:18.495Z,8.07
2019-05-19T22:31:19.616Z,6.73
2019-05-19T22:36:20.712Z,7.97
2019-05-19T22:41:21.913Z,7.73
2019-05-19T22:46:23.117Z,7.97
2019-05-19T22:51:25.004Z,8.23
2019-05-19T22:56:26.113Z,8.37
2019-05-19T23:01:27.216Z,7.13
2019-05-19T23:06:28.332Z,7.20
2019-05-19T23:11:29.419Z,8.03
2019-05-19T23:16:30.511Z,6.87
2019-05-19T23:21:34.412Z,5.93
2019-05-19T23:26:34.710Z,5.03
2019-05-19T23:31:35.844Z,4.30
2019-05-19T23:36:36.929Z,4.50
2019-05-19T23:41:38.025Z,3.80
2019-05-19T23:46:39.129Z,3.77
2019-05-19T23:51:40.211Z,4.40
2019-05-19T23:56:41.318Z,3.73
